sensor_id;sensor_type;location;lat;lon;timestamp;pressure;altitude;pressure_sealevel;temperature;humidity
45621;BME280;31345;51.522;10.702;2022-12-18T00:01:22;100521.09;;;-11.51;100.00
45621;BME280;31345;51.522;10.702;2022-12-18T00:03:50;100534.41;;;-12.08;100.00
45621;BME280;31345;51.522;10.702;2022-12-18T00:06:18;100532.63;;;-12.11;100.00
45621;BME280;31345;51.522;10.702;2022-12-18T00:08:46;100535.84;;;-12.13;100.00
45621;BME280;31345;51.522;10.702;2022-12-18T00:11:16;100538.53;;;-11.55;100.00
45621;BME280;31345;51.522;10.702;2022-12-18T00:13:43;100544.44;;;-11.73;100.00
45621;BME280;31345;51.522;10.702;2022-12-18T00:16:14;100533.50;;;-12.27;100.00
45621;BME280;31345;51.522;10.702;2022-12-18T00:18:43;100534.69;;;-12.37;100.00
45621;BME280;31345;51.522;10.702;2022-12-18T00:21:12;100541.34;;;-12.04;100.00
45621;BME280;31345;51.522;10.702;2022-12-18T00:23:42;100533.47;;;-11.92;100.00
45621;BME280;31345;51.522;10.702;2022-12-18T00:26:12;100541.03;;;-12.10;100.00
45621;BME280;31345;51.522;10.702;2022-12-18T00:28:41;100539.75;;;-12.53;100.00
45621;BME280;31345;51.522;10.702;2022-12-18T00:31:11;100543.38;;;-12.65;100.00
45621;BME280;31345;51.522;10.702;2022-12-18T00:33:41;100545.25;;;-12.60;100.00
45621;BME280;31345;51.522;10.702;2022-12-18T00:36:11;100551.25;;;-12.58;100.00
45621;BME280;31345;51.522;10.702;2022-12-18T00:38:40;100537.06;;;-12.23;100.00
45621;BME280;31345;51.522;10.702;2022-12-18T00:41:10;100543.53;;;-12.45;100.00
45621;BME280;31345;51.522;10.702;2022-12-18T00:43:39;100542.81;;;-12.59;100.00
45621;BME280;31345;51.522;10.702;2022-12-18T00:46:06;100552.19;;;-12.73;100.00
45621;BME280;31345;51.522;10.702;2022-12-18T00:48:34;100555.00;;;-12.17;100.00
45621;BME280;31345;51.522;10.702;2022-12-18T00:51:03;100550.63;;;-12.03;100.00
45621;BME280;31345;51.522;10.702;2022-12-18T00:53:30;100552.34;;;-12.37;100.00
45621;BME280;31345;51.522;10.702;2022-12-18T00:55:58;100553.97;;;-12.54;100.00
45621;BME280;31345;51.522;10.702;2022-12-18T00:58:26;100560.13;;;-12.32;100.00
45621;BME280;31345;51.522;10.702;2022-12-18T01:00:54;100557.69;;;-12.30;100.00
45621;BME280;31345;51.522;10.702;2022-12-18T01:03:21;100553.19;;;-12.19;100.00
45621;BME280;31345;51.522;10.702;2022-12-18T01:05:49;100546.88;;;-11.93;100.00
45621;BME280;31345;51.522;10.702;2022-12-18T01:08:20;100549.53;;;-12.43;100.00
45621;BME280;31345;51.522;10.702;2022-12-18T01:10:47;100552.19;;;-12.56;100.00
45621;BME280;31345;51.522;10.702;2022-12-18T01:13:15;100557.22;;;-12.23;100.00
45621;BME280;31345;51.522;10.702;2022-12-18T01:15:50;100559.59;;;-12.26;100.00
45621;BME280;31345;51.522;10.702;2022-12-18T01:18:18;100571.69;;;-12.36;100.00
45621;BME280;31345;51.522;10.702;2022-12-18T01:20:45;100573.13;;;-12.57;100.00
45621;BME280;31345;51.522;10.702;2022-12-18T01:23:13;100578.09;;;-12.42;100.00
45621;BME280;31345;51.522;10.702;2022-12-18T01:25:42;100580.31;;;-12.48;100.00
45621;BME280;31345;51.522;10.702;2022-12-18T01:28:10;100584.63;;;-12.29;100.00
45621;BME280;31345;51.522;10.702;2022-12-18T01:30:37;100585.59;;;-12.27;100.00
45621;BME280;31345;51.522;10.702;2022-12-18T01:33:05;100579.22;;;-12.37;100.00
45621;BME280;31345;51.522;10.702;2022-12-18T01:35:40;100569.50;;;-11.94;100.00
45621;BME280;31345;51.522;10.702;2022-12-18T01:38:08;100576.75;;;-12.19;100.00
45621;BME280;31345;51.522;10.702;2022-12-18T01:40:36;100580.28;;;-12.15;100.00
45621;BME280;31345;51.522;10.702;2022-12-18T01:43:05;100574.13;;;-12.04;100.00
45621;BME280;31345;51.522;10.702;2022-12-18T01:45:33;100578.63;;;-11.62;100.00
45621;BME280;31345;51.522;10.702;2022-12-18T01:48:04;100577.13;;;-11.58;100.00
45621;BME280;31345;51.522;10.702;2022-12-18T01:50:35;100581.13;;;-11.80;100.00
45621;BME280;31345;51.522;10.702;2022-12-18T01:53:07;100587.75;;;-11.82;100.00
45621;BME280;31345;51.522;10.702;2022-12-18T01:55:40;100580.28;;;-11.62;100.00
45621;BME280;31345;51.522;10.702;2022-12-18T01:58:11;100596.16;;;-11.65;100.00
45621;BME280;31345;51.522;10.702;2022-12-18T02:00:39;100590.31;;;-11.64;100.00
45621;BME280;31345;51.522;10.702;2022-12-18T02:03:07;100594.19;;;-11.71;100.00
45621;BME280;31345;51.522;10.702;2022-12-18T02:05:41;100599.00;;;-11.93;100.00
45621;BME280;31345;51.522;10.702;2022-12-18T02:08:16;100601.53;;;-11.93;100.00
45621;BME280;31345;51.522;10.702;2022-12-18T02:10:54;100596.75;;;-11.87;100.00
45621;BME280;31345;51.522;10.702;2022-12-18T02:13:30;100592.72;;;-11.84;100.00
45621;BME280;31345;51.522;10.702;2022-12-18T02:16:04;100601.69;;;-11.72;100.00
45621;BME280;31345;51.522;10.702;2022-12-18T02:18:37;100594.69;;;-11.43;100.00
45621;BME280;31345;51.522;10.702;2022-12-18T02:21:12;100593.88;;;-11.60;100.00
45621;BME280;31345;51.522;10.702;2022-12-18T02:23:47;100598.53;;;-11.68;100.00
45621;BME280;31345;51.522;10.702;2022-12-18T02:26:20;100591.22;;;-11.80;100.00
45621;BME280;31345;51.522;10.702;2022-12-18T02:28:54;100591.31;;;-11.78;100.00
45621;BME280;31345;51.522;10.702;2022-12-18T02:31:27;100593.94;;;-11.59;100.00
45621;BME280;31345;51.522;10.702;2022-12-18T02:34:00;100595.69;;;-11.92;100.00
45621;BME280;31345;51.522;10.702;2022-12-18T02:36:36;100589.34;;;-12.02;100.00
45621;BME280;31345;51.522;10.702;2022-12-18T02:39:07;100594.13;;;-11.72;100.00
45621;BME280;31345;51.522;10.702;2022-12-18T02:41:41;100587.41;;;-11.72;100.00
45621;BME280;31345;51.522;10.702;2022-12-18T02:44:10;100591.47;;;-11.75;100.00
45621;BME280;31345;51.522;10.702;2022-12-18T02:46:40;100600.16;;;-11.87;100.00
45621;BME280;31345;51.522;10.702;2022-12-18T02:49:24;100595.31;;;-11.82;100.00
45621;BME280;31345;51.522;10.702;2022-12-18T02:52:00;100591.00;;;-11.85;100.00
45621;BME280;31345;51.522;10.702;2022-12-18T02:54:38;100601.16;;;-12.18;100.00
45621;BME280;31345;51.522;10.702;2022-12-18T02:57:16;100600.16;;;-11.87;100.00
45621;BME280;31345;51.522;10.702;2022-12-18T02:59:54;100587.41;;;-11.72;100.00
45621;BME280;31345;51.522;10.702;2022-12-18T03:02:27;100582.88;;;-11.61;100.00
45621;BME280;31345;51.522;10.702;2022-12-18T03:05:01;100592.03;;;-11.81;100.00
45621;BME280;31345;51.522;10.702;2022-12-18T03:07:37;100590.72;;;-11.91;100.00
45621;BME280;31345;51.522;10.702;2022-12-18T03:10:12;100592.22;;;-11.76;100.00
45621;BME280;31345;51.522;10.702;2022-12-18T03:12:44;100588.00;;;-11.77;100.00
45621;BME280;31345;51.522;10.702;2022-12-18T03:15:17;100590.81;;;-12.06;100.00
45621;BME280;31345;51.522;10.702;2022-12-18T03:17:55;100602.13;;;-11.98;100.00
45621;BME280;31345;51.522;10.702;2022-12-18T03:20:29;100606.38;;;-11.80;100.00
45621;BME280;31345;51.522;10.702;2022-12-18T03:23:04;100600.22;;;-12.03;100.00
45621;BME280;31345;51.522;10.702;2022-12-18T03:25:34;100597.91;;;-11.99;100.00
45621;BME280;31345;51.522;10.702;2022-12-18T03:28:10;100610.47;;;-12.17;100.00
45621;BME280;31345;51.522;10.702;2022-12-18T03:30:41;100610.78;;;-12.11;100.00
45621;BME280;31345;51.522;10.702;2022-12-18T03:33:15;100607.94;;;-12.17;100.00
45621;BME280;31345;51.522;10.702;2022-12-18T03:35:48;100608.25;;;-12.11;100.00
45621;BME280;31345;51.522;10.702;2022-12-18T03:38:18;100608.66;;;-12.19;100.00
45621;BME280;31345;51.522;10.702;2022-12-18T03:40:56;100600.53;;;-12.14;100.00
45621;BME280;31345;51.522;10.702;2022-12-18T03:43:36;100599.34;;;-12.04;100.00
45621;BME280;31345;51.522;10.702;2022-12-18T03:46:14;100606.03;;;-12.04;100.00
45621;BME280;31345;51.522;10.702;2022-12-18T03:48:46;100610.53;;;-12.15;100.00
45621;BME280;31345;51.522;10.702;2022-12-18T03:51:25;100601.72;;;-12.24;100.00
45621;BME280;31345;51.522;10.702;2022-12-18T03:53:58;100590.63;;;-12.11;100.00
45621;BME280;31345;51.522;10.702;2022-12-18T03:56:36;100588.81;;;-12.13;100.00
45621;BME280;31345;51.522;10.702;2022-12-18T03:59:11;100582.94;;;-11.77;100.00
45621;BME280;31345;51.522;10.702;2022-12-18T04:01:45;100587.19;;;-11.76;100.00
45621;BME280;31345;51.522;10.702;2022-12-18T04:04:16;100580.69;;;-11.89;100.00
45621;BME280;31345;51.522;10.702;2022-12-18T04:06:49;100583.13;;;-12.09;100.00
45621;BME280;31345;51.522;10.702;2022-12-18T04:09:19;100583.59;;;-12.16;100.00
45621;BME280;31345;51.522;10.702;2022-12-18T04:11:48;100583.22;;;-12.07;100.00
45621;BME280;31345;51.522;10.702;2022-12-18T04:14:18;100593.53;;;-12.19;100.00
45621;BME280;31345;51.522;10.702;2022-12-18T04:16:50;100585.25;;;-12.33;100.00
45621;BME280;31345;51.522;10.702;2022-12-18T04:19:22;100587.44;;;-12.06;100.00
45621;BME280;31345;51.522;10.702;2022-12-18T04:21:52;100587.53;;;-11.87;100.00
45621;BME280;31345;51.522;10.702;2022-12-18T04:24:21;100591.44;;;-11.93;100.00
45621;BME280;31345;51.522;10.702;2022-12-18T04:27:02;100589.13;;;-12.24;100.00
45621;BME280;31345;51.522;10.702;2022-12-18T04:29:35;100582.91;;;-12.47;100.00
45621;BME280;31345;51.522;10.702;2022-12-18T04:32:03;100601.81;;;-12.55;100.00
45621;BME280;31345;51.522;10.702;2022-12-18T04:34:32;100589.28;;;-12.37;100.00
45621;BME280;31345;51.522;10.702;2022-12-18T04:37:00;100585.34;;;-12.65;100.00
45621;BME280;31345;51.522;10.702;2022-12-18T04:39:29;100594.47;;;-12.67;100.00
45621;BME280;31345;51.522;10.702;2022-12-18T04:42:00;100598.16;;;-12.77;100.00
45621;BME280;31345;51.522;10.702;2022-12-18T04:44:28;100603.41;;;-12.89;100.00
45621;BME280;31345;51.522;10.702;2022-12-18T04:46:57;100602.16;;;-12.81;100.00
45621;BME280;31345;51.522;10.702;2022-12-18T04:49:25;100602.97;;;-12.65;100.00
45621;BME280;31345;51.522;10.702;2022-12-18T04:51:54;100610.72;;;-12.94;100.00
45621;BME280;31345;51.522;10.702;2022-12-18T04:54:21;100605.66;;;-12.94;100.00
45621;BME280;31345;51.522;10.702;2022-12-18T04:56:49;100609.44;;;-13.02;100.00
45621;BME280;31345;51.522;10.702;2022-12-18T04:59:17;100605.84;;;-12.91;100.00
45621;BME280;31345;51.522;10.702;2022-12-18T05:01:44;100605.59;;;-12.95;100.00
45621;BME280;31345;51.522;10.702;2022-12-18T05:04:14;100610.59;;;-13.12;100.00
45621;BME280;31345;51.522;10.702;2022-12-18T05:06:41;100617.97;;;-13.15;100.00
45621;BME280;31345;51.522;10.702;2022-12-18T05:09:09;100616.41;;;-13.13;100.00
45621;BME280;31345;51.522;10.702;2022-12-18T05:11:37;100616.09;;;-13.03;100.00
45621;BME280;31345;51.522;10.702;2022-12-18T05:14:04;100619.50;;;-13.02;100.00
45621;BME280;31345;51.522;10.702;2022-12-18T05:16:32;100625.16;;;-13.06;100.00
45621;BME280;31345;51.522;10.702;2022-12-18T05:19:00;100624.97;;;-13.09;100.00
45621;BME280;31345;51.522;10.702;2022-12-18T05:21:29;100621.94;;;-13.04;100.00
45621;BME280;31345;51.522;10.702;2022-12-18T05:23:57;100619.19;;;-13.23;100.00
45621;BME280;31345;51.522;10.702;2022-12-18T05:26:25;100621.41;;;-13.45;100.00
45621;BME280;31345;51.522;10.702;2022-12-18T05:28:54;100616.63;;;-12.93;100.00
45621;BME280;31345;51.522;10.702;2022-12-18T05:31:23;100611.88;;;-13.04;100.00
45621;BME280;31345;51.522;10.702;2022-12-18T05:33:50;100613.78;;;-13.46;100.00
45621;BME280;31345;51.522;10.702;2022-12-18T05:36:18;100618.41;;;-13.69;100.00
45621;BME280;31345;51.522;10.702;2022-12-18T05:38:47;100618.03;;;-13.60;100.00
45621;BME280;31345;51.522;10.702;2022-12-18T05:41:15;100618.47;;;-13.52;100.00
45621;BME280;31345;51.522;10.702;2022-12-18T05:43:42;100625.81;;;-13.41;100.00
45621;BME280;31345;51.522;10.702;2022-12-18T05:46:13;100611.34;;;-13.45;100.00
45621;BME280;31345;51.522;10.702;2022-12-18T05:48:42;100608.75;;;-13.46;100.00
45621;BME280;31345;51.522;10.702;2022-12-18T05:51:11;100604.66;;;-13.12;100.00
45621;BME280;31345;51.522;10.702;2022-12-18T05:53:39;100616.06;;;-13.51;100.00
45621;BME280;31345;51.522;10.702;2022-12-18T05:56:11;100624.53;;;-13.64;100.00
45621;BME280;31345;51.522;10.702;2022-12-18T05:58:39;100620.72;;;-13.72;100.00
45621;BME280;31345;51.522;10.702;2022-12-18T06:01:09;100619.50;;;-13.79;100.00
45621;BME280;31345;51.522;10.702;2022-12-18T06:03:37;100622.78;;;-13.95;100.00
45621;BME280;31345;51.522;10.702;2022-12-18T06:06:12;100629.31;;;-13.54;100.00
45621;BME280;31345;51.522;10.702;2022-12-18T06:08:40;100643.66;;;-13.21;100.00
45621;BME280;31345;51.522;10.702;2022-12-18T06:11:09;100645.78;;;-13.44;100.00
45621;BME280;31345;51.522;10.702;2022-12-18T06:13:37;100647.97;;;-13.50;100.00
45621;BME280;31345;51.522;10.702;2022-12-18T06:16:06;100642.16;;;-13.49;100.00
45621;BME280;31345;51.522;10.702;2022-12-18T06:18:34;100647.00;;;-13.67;100.00
45621;BME280;31345;51.522;10.702;2022-12-18T06:21:02;100645.00;;;-13.58;100.00
45621;BME280;31345;51.522;10.702;2022-12-18T06:23:30;100641.88;;;-13.69;100.00
45621;BME280;31345;51.522;10.702;2022-12-18T06:25:57;100636.78;;;-13.55;100.00
45621;BME280;31345;51.522;10.702;2022-12-18T06:28:26;100636.09;;;-13.21;100.00
45621;BME280;31345;51.522;10.702;2022-12-18T06:30:54;100641.09;;;-13.06;100.00
45621;BME280;31345;51.522;10.702;2022-12-18T06:33:22;100647.75;;;-13.23;100.00
45621;BME280;31345;51.522;10.702;2022-12-18T06:35:53;100650.19;;;-13.24;100.00
45621;BME280;31345;51.522;10.702;2022-12-18T06:38:21;100643.28;;;-13.29;100.00
45621;BME280;31345;51.522;10.702;2022-12-18T06:40:48;100644.28;;;-13.25;100.00
45621;BME280;31345;51.522;10.702;2022-12-18T06:43:22;100640.31;;;-13.36;100.00
45621;BME280;31345;51.522;10.702;2022-12-18T06:45:57;100641.38;;;-13.33;100.00
45621;BME280;31345;51.522;10.702;2022-12-18T06:48:26;100638.09;;;-13.47;100.00
45621;BME280;31345;51.522;10.702;2022-12-18T06:50:55;100644.84;;;-13.46;100.00
45621;BME280;31345;51.522;10.702;2022-12-18T06:53:22;100649.88;;;-13.61;100.00
45621;BME280;31345;51.522;10.702;2022-12-18T06:55:50;100635.53;;;-13.77;100.00
45621;BME280;31345;51.522;10.702;2022-12-18T06:58:18;100639.44;;;-13.82;100.00
45621;BME280;31345;51.522;10.702;2022-12-18T07:00:45;100649.00;;;-13.46;100.00
45621;BME280;31345;51.522;10.702;2022-12-18T07:03:14;100649.44;;;-13.38;100.00
45621;BME280;31345;51.522;10.702;2022-12-18T07:05:42;100659.00;;;-13.33;100.00
45621;BME280;31345;51.522;10.702;2022-12-18T07:08:09;100655.78;;;-13.30;100.00
45621;BME280;31345;51.522;10.702;2022-12-18T07:10:41;100651.22;;;-13.81;100.00
45621;BME280;31345;51.522;10.702;2022-12-18T07:13:09;100647.41;;;-13.89;100.00
45621;BME280;31345;51.522;10.702;2022-12-18T07:15:37;100649.41;;;-13.84;100.00
45621;BME280;31345;51.522;10.702;2022-12-18T07:18:05;100652.06;;;-13.96;100.00
45621;BME280;31345;51.522;10.702;2022-12-18T07:20:34;100656.25;;;-13.96;100.00
45621;BME280;31345;51.522;10.702;2022-12-18T07:23:02;100668.63;;;-13.99;100.00
45621;BME280;31345;51.522;10.702;2022-12-18T07:25:33;100663.50;;;-14.01;100.00
45621;BME280;31345;51.522;10.702;2022-12-18T07:28:01;100668.66;;;-13.84;100.00
45621;BME280;31345;51.522;10.702;2022-12-18T07:30:29;100667.53;;;-14.18;100.00
45621;BME280;31345;51.522;10.702;2022-12-18T07:32:56;100678.16;;;-14.09;100.00
45621;BME280;31345;51.522;10.702;2022-12-18T07:35:24;100687.31;;;-13.81;100.00
45621;BME280;31345;51.522;10.702;2022-12-18T07:37:53;100686.63;;;-13.78;100.00
45621;BME280;31345;51.522;10.702;2022-12-18T07:40:21;100688.16;;;-13.95;100.00
45621;BME280;31345;51.522;10.702;2022-12-18T07:42:49;100692.16;;;-13.84;100.00
45621;BME280;31345;51.522;10.702;2022-12-18T07:45:17;100690.25;;;-13.88;100.00
45621;BME280;31345;51.522;10.702;2022-12-18T07:47:44;100700.31;;;-13.73;100.00
45621;BME280;31345;51.522;10.702;2022-12-18T07:50:12;100715.00;;;-13.66;100.00
45621;BME280;31345;51.522;10.702;2022-12-18T07:52:40;100717.09;;;-13.73;100.00
45621;BME280;31345;51.522;10.702;2022-12-18T07:55:09;100726.25;;;-13.30;100.00
45621;BME280;31345;51.522;10.702;2022-12-18T07:57:37;100734.03;;;-13.25;100.00
45621;BME280;31345;51.522;10.702;2022-12-18T08:00:05;100729.53;;;-13.31;100.00
45621;BME280;31345;51.522;10.702;2022-12-18T08:02:38;100736.72;;;-13.52;100.00
45621;BME280;31345;51.522;10.702;2022-12-18T08:05:07;100744.97;;;-13.55;100.00
45621;BME280;31345;51.522;10.702;2022-12-18T08:07:34;100739.44;;;-13.34;100.00
45621;BME280;31345;51.522;10.702;2022-12-18T08:10:02;100733.94;;;-13.42;100.00
45621;BME280;31345;51.522;10.702;2022-12-18T08:12:31;100735.06;;;-13.52;100.00
45621;BME280;31345;51.522;10.702;2022-12-18T08:14:59;100734.72;;;-13.43;100.00
45621;BME280;31345;51.522;10.702;2022-12-18T08:17:26;100741.13;;;-13.18;100.00
45621;BME280;31345;51.522;10.702;2022-12-18T08:19:54;100731.41;;;-12.97;100.00
45621;BME280;31345;51.522;10.702;2022-12-18T08:22:22;100719.94;;;-12.92;100.00
45621;BME280;31345;51.522;10.702;2022-12-18T08:24:49;100722.38;;;-12.93;100.00
45621;BME280;31345;51.522;10.702;2022-12-18T08:27:17;100720.28;;;-12.85;100.00
45621;BME280;31345;51.522;10.702;2022-12-18T08:29:46;100715.59;;;-12.79;100.00
45621;BME280;31345;51.522;10.702;2022-12-18T08:32:14;100698.47;;;-12.70;100.00
45621;BME280;31345;51.522;10.702;2022-12-18T08:34:41;100696.88;;;-12.68;100.00
45621;BME280;31345;51.522;10.702;2022-12-18T08:37:09;100700.69;;;-12.59;100.00
45621;BME280;31345;51.522;10.702;2022-12-18T08:39:37;100695.97;;;-12.53;100.00
45621;BME280;31345;51.522;10.702;2022-12-18T08:42:04;100692.66;;;-12.52;100.00
45621;BME280;31345;51.522;10.702;2022-12-18T08:44:51;100684.19;;;-12.38;100.00
45621;BME280;31345;51.522;10.702;2022-12-18T08:47:18;100679.25;;;-12.36;100.00
45621;BME280;31345;51.522;10.702;2022-12-18T08:49:46;100688.22;;;-12.25;100.00
45621;BME280;31345;51.522;10.702;2022-12-18T08:52:14;100681.44;;;-12.26;100.00
45621;BME280;31345;51.522;10.702;2022-12-18T08:54:41;100678.78;;;-12.12;100.00
45621;BME280;31345;51.522;10.702;2022-12-18T08:57:09;100680.81;;;-12.21;100.00
45621;BME280;31345;51.522;10.702;2022-12-18T08:59:36;100676.00;;;-12.00;100.00
45621;BME280;31345;51.522;10.702;2022-12-18T09:02:05;100662.38;;;-12.04;100.00
45621;BME280;31345;51.522;10.702;2022-12-18T09:04:33;100668.66;;;-11.95;100.00
45621;BME280;31345;51.522;10.702;2022-12-18T09:07:01;100669.50;;;-12.13;100.00
45621;BME280;31345;51.522;10.702;2022-12-18T09:09:28;100668.56;;;-11.97;100.00
45621;BME280;31345;51.522;10.702;2022-12-18T09:11:56;100667.03;;;-12.12;100.00
45621;BME280;31345;51.522;10.702;2022-12-18T09:14:24;100662.66;;;-11.98;100.00
45621;BME280;31345;51.522;10.702;2022-12-18T09:16:51;100655.66;;;-11.87;100.00
45621;BME280;31345;51.522;10.702;2022-12-18T09:19:20;100665.59;;;-11.90;100.00
45621;BME280;31345;51.522;10.702;2022-12-18T09:21:48;100661.53;;;-11.86;100.00
45621;BME280;31345;51.522;10.702;2022-12-18T09:24:16;100671.34;;;-11.92;100.00
45621;BME280;31345;51.522;10.702;2022-12-18T09:26:44;100684.66;;;-11.78;100.00
45621;BME280;31345;51.522;10.702;2022-12-18T09:29:12;100676.75;;;-11.68;100.00
45621;BME280;31345;51.522;10.702;2022-12-18T09:31:39;100675.06;;;-11.51;100.00
45621;BME280;31345;51.522;10.702;2022-12-18T09:34:07;100658.88;;;-11.38;100.00
45621;BME280;31345;51.522;10.702;2022-12-18T09:36:36;100657.41;;;-11.33;100.00
45621;BME280;31345;51.522;10.702;2022-12-18T09:39:04;100652.19;;;-11.19;100.00
45621;BME280;31345;51.522;10.702;2022-12-18T09:41:41;100657.50;;;-11.31;100.00
45621;BME280;31345;51.522;10.702;2022-12-18T09:44:15;100643.09;;;-11.15;100.00
45621;BME280;31345;51.522;10.702;2022-12-18T09:46:47;100639.84;;;-11.13;100.00
45621;BME280;31345;51.522;10.702;2022-12-18T09:49:20;100644.38;;;-11.05;100.00
45621;BME280;31345;51.522;10.702;2022-12-18T09:51:54;100638.81;;;-10.98;100.00
45621;BME280;31345;51.522;10.702;2022-12-18T09:54:26;100635.66;;;-10.94;100.00
45621;BME280;31345;51.522;10.702;2022-12-18T09:56:57;100643.78;;;-10.82;100.00
45621;BME280;31345;51.522;10.702;2022-12-18T09:59:27;100651.00;;;-10.51;100.00
45621;BME280;31345;51.522;10.702;2022-12-18T10:01:58;100641.91;;;-10.48;100.00
45621;BME280;31345;51.522;10.702;2022-12-18T10:04:29;100637.84;;;-10.44;100.00
45621;BME280;31345;51.522;10.702;2022-12-18T10:07:03;100634.78;;;-10.57;100.00
45621;BME280;31345;51.522;10.702;2022-12-18T10:09:37;100637.84;;;-10.44;100.00
45621;BME280;31345;51.522;10.702;2022-12-18T10:12:12;100641.91;;;-10.28;100.00
45621;BME280;31345;51.522;10.702;2022-12-18T10:14:50;100638.19;;;-10.36;100.00
45621;BME280;31345;51.522;10.702;2022-12-18T10:17:26;100647.28;;;-10.40;100.00
45621;BME280;31345;51.522;10.702;2022-12-18T10:19:59;100650.03;;;-10.16;100.00
45621;BME280;31345;51.522;10.702;2022-12-18T10:22:42;100650.97;;;-10.13;100.00
45621;BME280;31345;51.522;10.702;2022-12-18T10:25:20;100649.69;;;-10.23;100.00
45621;BME280;31345;51.522;10.702;2022-12-18T10:27:52;100665.97;;;-9.98;100.00
45621;BME280;31345;51.522;10.702;2022-12-18T10:30:24;100669.63;;;-9.92;100.00
45621;BME280;31345;51.522;10.702;2022-12-18T10:32:52;100675.19;;;-9.79;100.00
45621;BME280;31345;51.522;10.702;2022-12-18T10:35:22;100672.47;;;-9.43;100.00
45621;BME280;31345;51.522;10.702;2022-12-18T10:38:04;100661.78;;;-9.14;100.00
45621;BME280;31345;51.522;10.702;2022-12-18T10:40:33;100665.72;;;-9.00;100.00
45621;BME280;31345;51.522;10.702;2022-12-18T10:43:15;100653.81;;;-9.23;100.00
45621;BME280;31345;51.522;10.702;2022-12-18T10:48:50;100661.00;;;-9.13;100.00
45621;BME280;31345;51.522;10.702;2022-12-18T10:51:21;100660.84;;;-8.95;100.00
45621;BME280;31345;51.522;10.702;2022-12-18T10:53:56;100650.31;;;-8.83;100.00
45621;BME280;31345;51.522;10.702;2022-12-18T10:56:26;100642.72;;;-8.81;100.00
45621;BME280;31345;51.522;10.702;2022-12-18T10:58:57;100641.28;;;-8.52;100.00
45621;BME280;31345;51.522;10.702;2022-12-18T11:01:25;100627.06;;;-8.48;100.00
45621;BME280;31345;51.522;10.702;2022-12-18T11:04:08;100623.66;;;-8.49;100.00
45621;BME280;31345;51.522;10.702;2022-12-18T11:06:52;100612.03;;;-8.42;100.00
45621;BME280;31345;51.522;10.702;2022-12-18T11:09:24;100618.81;;;-8.18;100.00
45621;BME280;31345;51.522;10.702;2022-12-18T11:11:53;100609.72;;;-8.11;100.00
45621;BME280;31345;51.522;10.702;2022-12-18T11:14:23;100609.00;;;-7.83;100.00
45621;BME280;31345;51.522;10.702;2022-12-18T11:16:52;100612.69;;;-7.48;100.00
45621;BME280;31345;51.522;10.702;2022-12-18T11:19:27;100610.22;;;-7.45;100.00
45621;BME280;31345;51.522;10.702;2022-12-18T11:21:56;100613.44;;;-7.51;100.00
45621;BME280;31345;51.522;10.702;2022-12-18T11:24:28;100611.97;;;-7.70;100.00
45621;BME280;31345;51.522;10.702;2022-12-18T11:26:58;100605.09;;;-7.73;100.00
45621;BME280;31345;51.522;10.702;2022-12-18T11:29:32;100592.50;;;-7.70;100.00
45621;BME280;31345;51.522;10.702;2022-12-18T11:32:30;100582.03;;;-7.53;100.00
45621;BME280;31345;51.522;10.702;2022-12-18T11:35:03;100579.78;;;-7.44;100.00
45621;BME280;31345;51.522;10.702;2022-12-18T11:37:32;100584.50;;;-7.28;100.00
45621;BME280;31345;51.522;10.702;2022-12-18T11:40:07;100583.03;;;-7.48;100.00
45621;BME280;31345;51.522;10.702;2022-12-18T11:42:41;100585.00;;;-7.39;100.00
45621;BME280;31345;51.522;10.702;2022-12-18T11:45:26;100577.25;;;-7.44;100.00
45621;BME280;31345;51.522;10.702;2022-12-18T11:47:58;100580.97;;;-7.32;100.00
45621;BME280;31345;51.522;10.702;2022-12-18T11:50:33;100579.66;;;-7.48;100.00
45621;BME280;31345;51.522;10.702;2022-12-18T11:53:09;100584.53;;;-7.54;100.00
45621;BME280;31345;51.522;10.702;2022-12-18T11:55:43;100579.59;;;-7.50;100.00
45621;BME280;31345;51.522;10.702;2022-12-18T11:58:22;100567.31;;;-7.63;100.00
45621;BME280;31345;51.522;10.702;2022-12-18T12:01:00;100559.41;;;-7.45;100.00
45621;BME280;31345;51.522;10.702;2022-12-18T12:06:37;100569.56;;;-7.45;100.00
45621;BME280;31345;51.522;10.702;2022-12-18T12:09:11;100577.00;;;-7.51;100.00
45621;BME280;31345;51.522;10.702;2022-12-18T12:11:53;100571.66;;;-7.61;100.00
45621;BME280;31345;51.522;10.702;2022-12-18T12:14:33;100561.44;;;-7.62;100.00
45621;BME280;31345;51.522;10.702;2022-12-18T12:17:10;100559.94;;;-7.55;100.00
45621;BME280;31345;51.522;10.702;2022-12-18T12:19:47;100549.41;;;-7.68;100.00
45621;BME280;31345;51.522;10.702;2022-12-18T12:22:25;100534.34;;;-7.62;100.00
45621;BME280;31345;51.522;10.702;2022-12-18T12:25:05;100529.19;;;-7.65;100.00
45621;BME280;31345;51.522;10.702;2022-12-18T12:27:45;100521.06;;;-7.53;100.00
45621;BME280;31345;51.522;10.702;2022-12-18T12:30:20;100521.28;;;-7.45;100.00
45621;BME280;31345;51.522;10.702;2022-12-18T12:33:09;100524.56;;;-7.49;100.00
45621;BME280;31345;51.522;10.702;2022-12-18T12:35:47;100530.47;;;-7.50;100.00
45621;BME280;31345;51.522;10.702;2022-12-18T12:38:22;100534.88;;;-7.45;100.00
45621;BME280;31345;51.522;10.702;2022-12-18T12:40:56;100525.69;;;-7.41;100.00
45621;BME280;31345;51.522;10.702;2022-12-18T12:43:33;100521.28;;;-7.45;100.00
45621;BME280;31345;51.522;10.702;2022-12-18T12:46:04;100526.16;;;-7.53;100.00
45621;BME280;31345;51.522;10.702;2022-12-18T12:48:45;100528.75;;;-7.51;100.00